M I D A S
Marine Information and Data Acquisition System
Tripno 1141 of the Zeeleeuw from 2006-07-26 06:50:28 to 2006-07-26 14:25:48
Back to CruiseResearch ActivitiesStationsMapUnderway DataData graphs

EquipmentUnitsComments
TimeDGPSUTC
LatitudeDGPSDM.mWGS84
LongitudeDGPSDM.mWGS84
SpeedMeteo Stationm/sRelative wind speed
DirectionMeteo StationdegRelative wind direction
TemperatureMeteo Stationdeg CelciusAir temperature
PressureMeteo StationPaAtmospheric pressure
HumidityMeteo Station%Relative humidity
Missing or incorrect values are displayed as -999
Metereological data collected by the RV Zeeleeuw from 2006-07-26 06:41:01 to 2006-07-26 14:37:47
Time Latitude Longitude Speed Direction Temperature Pressure Humidity
2006-07-26 06:42 51°13.612 2°56.042 -999 -999 -999 -999 -999
2006-07-26 06:43 51°13.63 2°55.953 -999 -999 -999 -999 -999
2006-07-26 06:44 51°13.659 2°55.87 -999 -999 -999 -999 -999
2006-07-26 06:45 51°13.693 2°55.788 -999 -999 -999 -999 -999
2006-07-26 06:46 51°13.712 2°55.74 -999 -999 -999 -999 -999
2006-07-26 06:47 51°13.72 2°55.755 -999 -999 -999 -999 -999
2006-07-26 06:48 51°13.711 2°55.729 -999 -999 -999 -999 -999
2006-07-26 06:49 51°13.741 2°55.711 -999 -999 -999 -999 -999
2006-07-26 06:50 51°13.832 2°55.634 -999 -999 -999 -999 -999
2006-07-26 06:51 51°13.967 2°55.536 -999 -999 -999 -999 -999
2006-07-26 06:52 51°14.09 2°55.449 -999 -999 -999 -999 -999
2006-07-26 06:53 51°14.198 2°55.354 -999 -999 -999 -999 -999
2006-07-26 06:54 51°14.291 2°55.223 -999 -999 -999 -999 -999
2006-07-26 06:55 51°14.373 2°55.069 -999 -999 -999 -999 -999
2006-07-26 06:56 51°14.493 2°54.863 -999 -999 -999 -999 -999
2006-07-26 06:57 51°14.658 2°54.678 -999 -999 -999 -999 -999
2006-07-26 06:58 51°14.828 2°54.499 -999 -999 -999 -999 -999
2006-07-26 06:59 51°14.996 2°54.32 -999 -999 -999 -999 -999
2006-07-26 07:00 51°15.16 2°54.132 -999 -999 -999 -999 -999
2006-07-26 07:01 51°15.328 2°53.94 -999 -999 -999 -999 -999
2006-07-26 07:02 51°15.51 2°53.802 -999 -999 -999 -999 -999
2006-07-26 07:03 51°15.693 2°53.665 -999 -999 -999 -999 -999
2006-07-26 07:04 51°15.876 2°53.532 -999 -999 -999 -999 -999
2006-07-26 07:05 51°16.065 2°53.42 -999 -999 -999 -999 -999
2006-07-26 07:06 51°16.252 2°53.304 -999 -999 -999 -999 -999
2006-07-26 07:07 51°16.44 2°53.19 -999 -999 -999 -999 -999
2006-07-26 07:08 51°16.619 2°53.048 -999 -999 -999 -999 -999
2006-07-26 07:09 51°16.715 2°52.785 -999 -999 -999 -999 -999
2006-07-26 07:10 51°16.721 2°52.533 -999 -999 -999 -999 -999
2006-07-26 07:11 51°16.707 2°52.412 -999 -999 -999 -999 -999
2006-07-26 07:12 51°16.707 2°52.33 -999 -999 -999 -999 -999
2006-07-26 07:13 51°16.715 2°52.254 -999 -999 -999 -999 -999
2006-07-26 07:14 51°16.737 2°52.172 -999 -999 -999 -999 -999
2006-07-26 07:15 51°16.765 2°52.11 -999 -999 -999 -999 -999
2006-07-26 07:16 51°16.796 2°52.083 -999 -999 -999 -999 -999
2006-07-26 07:17 51°16.822 2°52.099 -999 -999 -999 -999 -999
2006-07-26 07:18 51°16.835 2°52.158 -999 -999 -999 -999 -999
2006-07-26 07:19 51°16.839 2°52.231 -999 -999 -999 -999 -999
2006-07-26 07:20 51°16.836 2°52.303 -999 -999 -999 -999 -999
2006-07-26 07:21 51°16.827 2°52.374 -999 -999 -999 -999 -999
2006-07-26 07:22 51°16.8 2°52.439 -999 -999 -999 -999 -999
2006-07-26 07:23 51°16.746 2°52.479 -999 -999 -999 -999 -999
2006-07-26 07:24 51°16.68 2°52.479 -999 -999 -999 -999 -999
2006-07-26 07:25 51°16.614 2°52.438 -999 -999 -999 -999 -999
2006-07-26 07:26 51°16.564 2°52.359 -999 -999 -999 -999 -999
2006-07-26 07:27 51°16.552 2°52.261 -999 -999 -999 -999 -999
2006-07-26 07:28 51°16.575 2°52.191 -999 -999 -999 -999 -999
2006-07-26 07:29 51°16.612 2°52.174 -999 -999 -999 -999 -999
2006-07-26 07:30 51°16.655 2°52.191 -999 -999 -999 -999 -999
2006-07-26 07:31 51°16.692 2°52.229 -999 -999 -999 -999 -999
2006-07-26 07:32 51°16.711 2°52.293 -999 -999 -999 -999 -999
2006-07-26 07:33 51°16.703 2°52.348 -999 -999 -999 -999 -999
2006-07-26 07:34 51°16.682 2°52.38 -999 -999 -999 -999 -999
2006-07-26 07:35 51°16.661 2°52.397 -999 -999 -999 -999 -999
2006-07-26 07:36 51°16.636 2°52.421 -999 -999 -999 -999 -999
2006-07-26 07:37 51°16.605 2°52.478 -999 -999 -999 -999 -999
2006-07-26 07:38 51°16.567 2°52.539 -999 -999 -999 -999 -999
2006-07-26 07:39 51°16.533 2°52.573 -999 -999 -999 -999 -999
2006-07-26 07:40 51°16.502 2°52.592 -999 -999 -999 -999 -999
2006-07-26 07:41 51°16.464 2°52.623 -999 -999 -999 -999 -999
2006-07-26 07:42 51°16.38 2°52.626 -999 -999 -999 -999 -999
2006-07-26 07:43 51°16.303 2°52.559 -999 -999 -999 -999 -999
2006-07-26 07:44 51°16.239 2°52.472 -999 -999 -999 -999 -999
2006-07-26 07:45 51°16.189 2°52.395 -999 -999 -999 -999 -999
2006-07-26 07:46 51°16.145 2°52.327 -999 -999 -999 -999 -999
2006-07-26 07:47 51°16.103 2°52.266 -999 -999 -999 -999 -999
2006-07-26 07:48 51°16.063 2°52.21 -999 -999 -999 -999 -999
2006-07-26 07:49 51°16.023 2°52.155 -999 -999 -999 -999 -999
2006-07-26 07:50 51°15.983 2°52.103 -999 -999 -999 -999 -999
2006-07-26 07:51 51°15.944 2°52.051 -999 -999 -999 -999 -999
2006-07-26 07:52 51°15.905 2°52 -999 -999 -999 -999 -999
2006-07-26 07:53 51°15.865 2°51.947 -999 -999 -999 -999 -999
2006-07-26 07:54 51°15.827 2°51.894 -999 -999 -999 -999 -999
2006-07-26 07:55 51°15.788 2°51.841 -999 -999 -999 -999 -999
2006-07-26 07:56 51°15.75 2°51.788 -999 -999 -999 -999 -999
2006-07-26 07:57 51°15.712 2°51.734 -999 -999 -999 -999 -999
2006-07-26 07:58 51°15.676 2°51.68 -999 -999 -999 -999 -999
2006-07-26 07:59 51°15.645 2°51.625 -999 -999 -999 -999 -999
2006-07-26 08:00 51°15.619 2°51.569 -999 -999 -999 -999 -999
2006-07-26 08:01 51°15.595 2°51.513 -999 -999 -999 -999 -999
2006-07-26 08:02 51°15.571 2°51.457 -999 -999 -999 -999 -999
2006-07-26 08:03 51°15.55 2°51.398 -999 -999 -999 -999 -999
2006-07-26 08:04 51°15.531 2°51.324 -999 -999 -999 -999 -999
2006-07-26 08:05 51°15.519 2°51.234 -999 -999 -999 -999 -999
2006-07-26 08:06 51°15.537 2°51.111 -999 -999 -999 -999 -999
2006-07-26 08:07 51°15.597 2°51.03 -999 -999 -999 -999 -999
2006-07-26 08:08 51°15.662 2°51.037 -999 -999 -999 -999 -999
2006-07-26 08:09 51°15.689 2°51.096 -999 -999 -999 -999 -999
2006-07-26 08:10 51°15.683 2°51.126 -999 -999 -999 -999 -999
2006-07-26 08:11 51°15.664 2°51.136 -999 -999 -999 -999 -999
2006-07-26 08:12 51°15.599 2°51.169 -999 -999 -999 -999 -999
2006-07-26 08:13 51°15.492 2°51.021 -999 -999 -999 -999 -999
2006-07-26 08:14 51°15.374 2°50.747 -999 -999 -999 -999 -999
2006-07-26 08:15 51°15.239 2°50.443 -999 -999 -999 -999 -999
2006-07-26 08:16 51°15.117 2°50.119 -999 -999 -999 -999 -999
2006-07-26 08:17 51°15.012 2°49.78 -999 -999 -999 -999 -999
2006-07-26 08:18 51°14.913 2°49.438 -999 -999 -999 -999 -999
2006-07-26 08:19 51°14.814 2°49.096 -999 -999 -999 -999 -999
2006-07-26 08:20 51°14.715 2°48.753 -999 -999 -999 -999 -999
2006-07-26 08:21 51°14.616 2°48.41 -999 -999 -999 -999 -999
2006-07-26 08:22 51°14.513 2°48.068 -999 -999 -999 -999 -999
2006-07-26 08:23 51°14.423 2°47.721 -999 -999 -999 -999 -999
2006-07-26 08:24 51°14.335 2°47.377 -999 -999 -999 -999 -999
2006-07-26 08:25 51°14.245 2°47.038 -999 -999 -999 -999 -999
2006-07-26 08:26 51°14.156 2°46.701 -999 -999 -999 -999 -999
2006-07-26 08:27 51°14.064 2°46.369 -999 -999 -999 -999 -999
2006-07-26 08:28 51°13.971 2°46.039 -999 -999 -999 -999 -999
2006-07-26 08:29 51°13.902 2°45.696 -999 -999 -999 -999 -999
2006-07-26 08:30 51°13.83 2°45.354 -999 -999 -999 -999 -999
2006-07-26 08:31 51°13.753 2°45.013 -999 -999 -999 -999 -999
2006-07-26 08:32 51°13.668 2°44.674 -999 -999 -999 -999 -999
2006-07-26 08:33 51°13.58 2°44.335 -999 -999 -999 -999 -999
2006-07-26 08:34 51°13.484 2°44.003 -999 -999 -999 -999 -999
2006-07-26 08:35 51°13.391 2°43.676 -999 -999 -999 -999 -999
2006-07-26 08:36 51°13.3 2°43.351 -999 -999 -999 -999 -999
2006-07-26 08:37 51°13.193 2°43.038 -999 -999 -999 -999 -999
2006-07-26 08:38 51°13.085 2°42.724 -999 -999 -999 -999 -999
2006-07-26 08:39 51°12.965 2°42.422 -999 -999 -999 -999 -999
2006-07-26 08:40 51°12.846 2°42.119 -999 -999 -999 -999 -999
2006-07-26 08:41 51°12.752 2°41.793 -999 -999 -999 -999 -999
2006-07-26 08:42 51°12.649 2°41.465 -999 -999 -999 -999 -999
2006-07-26 08:43 51°12.532 2°41.164 -999 -999 -999 -999 -999
2006-07-26 08:44 51°12.433 2°40.831 -999 -999 -999 -999 -999
2006-07-26 08:45 51°12.318 2°40.521 -999 -999 -999 -999 -999
2006-07-26 08:46 51°12.195 2°40.21 -999 -999 -999 -999 -999
2006-07-26 08:47 51°12.072 2°39.9 -999 -999 -999 -999 -999
2006-07-26 08:48 51°11.949 2°39.59 -999 -999 -999 -999 -999
2006-07-26 08:49 51°11.827 2°39.281 -999 -999 -999 -999 -999
2006-07-26 08:50 51°11.704 2°38.976 -999 -999 -999 -999 -999
2006-07-26 08:51 51°11.58 2°38.665 -999 -999 -999 -999 -999
2006-07-26 08:52 51°11.462 2°38.364 -999 -999 -999 -999 -999
2006-07-26 08:53 51°11.343 2°38.057 -999 -999 -999 -999 -999
2006-07-26 08:54 51°11.22 2°37.754 -999 -999 -999 -999 -999
2006-07-26 08:55 51°11.099 2°37.451 -999 -999 -999 -999 -999
2006-07-26 08:56 51°10.977 2°37.15 -999 -999 -999 -999 -999
2006-07-26 08:57 51°10.849 2°36.855 -999 -999 -999 -999 -999
2006-07-26 08:58 51°10.711 2°36.57 -999 -999 -999 -999 -999
2006-07-26 08:59 51°10.578 2°36.278 -999 -999 -999 -999 -999
2006-07-26 09:00 51°10.446 2°35.986 -999 -999 -999 -999 -999
2006-07-26 09:01 51°10.283 2°35.736 -999 -999 -999 -999 -999
2006-07-26 09:02 51°10.126 2°35.475 -999 -999 -999 -999 -999
2006-07-26 09:03 51°9.968 2°35.218 -999 -999 -999 -999 -999
2006-07-26 09:04 51°9.801 2°34.973 -999 -999 -999 -999 -999
2006-07-26 09:05 51°9.674 2°34.674 -999 -999 -999 -999 -999
2006-07-26 09:06 51°9.573 2°34.337 -999 -999 -999 -999 -999
2006-07-26 09:07 51°9.452 2°34.009 -999 -999 -999 -999 -999
2006-07-26 09:08 51°9.323 2°33.699 -999 -999 -999 -999 -999
2006-07-26 09:09 51°9.191 2°33.381 -999 -999 -999 -999 -999
2006-07-26 09:10 51°9.058 2°33.07 -999 -999 -999 -999 -999
2006-07-26 09:11 51°8.924 2°32.763 -999 -999 -999 -999 -999
2006-07-26 09:12 51°8.791 2°32.468 -999 -999 -999 -999 -999
2006-07-26 09:13 51°8.638 2°32.189 -999 -999 -999 -999 -999
2006-07-26 09:14 51°8.485 2°31.906 -999 -999 -999 -999 -999
2006-07-26 09:15 51°8.28 2°31.722 -999 -999 -999 -999 -999
2006-07-26 09:16 51°8.061 2°31.612 -999 -999 -999 -999 -999
2006-07-26 09:17 51°7.864 2°31.681 -999 -999 -999 -999 -999
2006-07-26 09:18 51°7.815 2°31.808 -999 -999 -999 -999 -999
2006-07-26 09:19 51°7.849 2°31.888 -999 -999 -999 -999 -999
2006-07-26 09:20 51°7.899 2°31.919 -999 -999 -999 -999 -999
2006-07-26 09:21 51°7.938 2°31.914 -999 -999 -999 -999 -999
2006-07-26 09:22 51°8.013 2°31.947 -999 -999 -999 -999 -999
2006-07-26 09:23 51°8.046 2°32.025 -999 -999 -999 -999 -999
2006-07-26 09:24 51°8.039 2°32.111 -999 -999 -999 -999 -999
2006-07-26 09:25 51°8.026 2°32.198 -999 -999 -999 -999 -999
2006-07-26 09:26 51°8.015 2°32.279 -999 -999 -999 -999 -999
2006-07-26 09:27 51°8.004 2°32.356 -999 -999 -999 -999 -999
2006-07-26 09:28 51°7.996 2°32.427 -999 -999 -999 -999 -999
2006-07-26 09:29 51°8 2°32.498 -999 -999 -999 -999 -999
2006-07-26 09:30 51°8.018 2°32.572 -999 -999 -999 -999 -999
2006-07-26 09:31 51°8.039 2°32.648 -999 -999 -999 -999 -999
2006-07-26 09:32 51°8.059 2°32.725 -999 -999 -999 -999 -999
2006-07-26 09:33 51°8.077 2°32.802 -999 -999 -999 -999 -999
2006-07-26 09:34 51°8.096 2°32.88 -999 -999 -999 -999 -999
2006-07-26 09:35 51°8.117 2°32.95 -999 -999 -999 -999 -999
2006-07-26 09:36 51°8.14 2°33.021 -999 -999 -999 -999 -999
2006-07-26 09:37 51°8.163 2°33.089 -999 -999 -999 -999 -999
2006-07-26 09:38 51°8.186 2°33.16 -999 -999 -999 -999 -999
2006-07-26 09:39 51°8.208 2°33.229 -999 -999 -999 -999 -999
2006-07-26 09:40 51°8.232 2°33.3 -999 -999 -999 -999 -999
2006-07-26 09:41 51°8.254 2°33.371 -999 -999 -999 -999 -999
2006-07-26 09:42 51°8.277 2°33.443 -999 -999 -999 -999 -999
2006-07-26 09:43 51°8.3 2°33.516 -999 -999 -999 -999 -999
2006-07-26 09:44 51°8.323 2°33.585 -999 -999 -999 -999 -999
2006-07-26 09:45 51°8.348 2°33.652 -999 -999 -999 -999 -999
2006-07-26 09:46 51°8.374 2°33.717 -999 -999 -999 -999 -999
2006-07-26 09:47 51°8.4 2°33.784 -999 -999 -999 -999 -999
2006-07-26 09:48 51°8.427 2°33.85 -999 -999 -999 -999 -999
2006-07-26 09:49 51°8.454 2°33.915 -999 -999 -999 -999 -999
2006-07-26 09:50 51°8.481 2°33.981 -999 -999 -999 -999 -999
2006-07-26 09:51 51°8.507 2°34.048 -999 -999 -999 -999 -999
2006-07-26 09:52 51°8.533 2°34.116 -999 -999 -999 -999 -999
2006-07-26 09:53 51°8.558 2°34.181 -999 -999 -999 -999 -999
2006-07-26 09:54 51°8.583 2°34.249 -999 -999 -999 -999 -999
2006-07-26 09:55 51°8.609 2°34.315 -999 -999 -999 -999 -999
2006-07-26 09:56 51°8.635 2°34.382 -999 -999 -999 -999 -999
2006-07-26 09:57 51°8.659 2°34.447 -999 -999 -999 -999 -999
2006-07-26 09:58 51°8.692 2°34.509 -999 -999 -999 -999 -999
2006-07-26 09:59 51°8.728 2°34.565 -999 -999 -999 -999 -999
2006-07-26 10:00 51°8.764 2°34.622 -999 -999 -999 -999 -999
2006-07-26 10:01 51°8.802 2°34.681 -999 -999 -999 -999 -999
2006-07-26 10:02 51°8.838 2°34.739 -999 -999 -999 -999 -999
2006-07-26 10:03 51°8.874 2°34.802 -999 -999 -999 -999 -999
2006-07-26 10:04 51°8.907 2°34.884 -999 -999 -999 -999 -999
2006-07-26 10:05 51°8.935 2°34.972 -999 -999 -999 -999 -999
2006-07-26 10:06 51°8.958 2°35.068 -999 -999 -999 -999 -999
2006-07-26 10:07 51°8.973 2°35.139 -999 -999 -999 -999 -999
2006-07-26 10:08 51°8.986 2°35.178 -999 -999 -999 -999 -999
2006-07-26 10:09 51°8.997 2°35.193 -999 -999 -999 -999 -999
2006-07-26 10:10 51°9.006 2°35.197 -999 -999 -999 -999 -999
2006-07-26 10:11 51°9.014 2°35.196 -999 -999 -999 -999 -999
2006-07-26 10:12 51°9.033 2°35.268 -999 -999 -999 -999 -999
2006-07-26 10:13 51°9.041 2°35.458 -999 -999 -999 -999 -999
2006-07-26 10:14 51°9.057 2°35.671 -999 -999 -999 -999 -999
2006-07-26 10:15 51°9.039 2°35.891 -999 -999 -999 -999 -999
2006-07-26 10:16 51°9.017 2°36.108 -999 -999 -999 -999 -999
2006-07-26 10:17 51°9.032 2°36.254 -999 -999 -999 -999 -999
2006-07-26 10:18 51°9.054 2°36.365 -999 -999 -999 -999 -999
2006-07-26 10:19 51°9.048 2°36.459 -999 -999 -999 -999 -999
2006-07-26 10:20 51°9.048 2°36.539 -999 -999 -999 -999 -999
2006-07-26 10:21 51°9.046 2°36.616 -999 -999 -999 -999 -999
2006-07-26 10:22 51°9.044 2°36.69 -999 -999 -999 -999 -999
2006-07-26 10:23 51°9.045 2°36.766 -999 -999 -999 -999 -999
2006-07-26 10:24 51°9.046 2°36.847 -999 -999 -999 -999 -999
2006-07-26 10:25 51°9.048 2°36.93 -999 -999 -999 -999 -999
2006-07-26 10:26 51°9.049 2°37.013 -999 -999 -999 -999 -999
2006-07-26 10:27 51°9.051 2°37.094 -999 -999 -999 -999 -999
2006-07-26 10:28 51°9.052 2°37.173 -999 -999 -999 -999 -999
2006-07-26 10:29 51°9.054 2°37.252 -999 -999 -999 -999 -999
2006-07-26 10:30 51°9.056 2°37.331 -999 -999 -999 -999 -999
2006-07-26 10:31 51°9.059 2°37.41 -999 -999 -999 -999 -999
2006-07-26 10:32 51°9.066 2°37.488 -999 -999 -999 -999 -999
2006-07-26 10:33 51°9.078 2°37.564 -999 -999 -999 -999 -999
2006-07-26 10:34 51°9.093 2°37.64 -999 -999 -999 -999 -999
2006-07-26 10:35 51°9.108 2°37.716 -999 -999 -999 -999 -999
2006-07-26 10:36 51°9.125 2°37.791 -999 -999 -999 -999 -999
2006-07-26 10:37 51°9.142 2°37.869 -999 -999 -999 -999 -999
2006-07-26 10:38 51°9.158 2°37.947 -999 -999 -999 -999 -999
2006-07-26 10:39 51°9.175 2°38.026 -999 -999 -999 -999 -999
2006-07-26 10:40 51°9.191 2°38.106 -999 -999 -999 -999 -999
2006-07-26 10:41 51°9.204 2°38.181 -999 -999 -999 -999 -999
2006-07-26 10:42 51°9.221 2°38.258 -999 -999 -999 -999 -999
2006-07-26 10:43 51°9.24 2°38.33 -999 -999 -999 -999 -999
2006-07-26 10:44 51°9.259 2°38.402 -999 -999 -999 -999 -999
2006-07-26 10:45 51°9.279 2°38.474 -999 -999 -999 -999 -999
2006-07-26 10:46 51°9.297 2°38.549 -999 -999 -999 -999 -999
2006-07-26 10:47 51°9.314 2°38.624 -999 -999 -999 -999 -999
2006-07-26 10:48 51°9.33 2°38.698 -999 -999 -999 -999 -999
2006-07-26 10:49 51°9.346 2°38.775 -999 -999 -999 -999 -999
2006-07-26 10:50 51°9.362 2°38.85 -999 -999 -999 -999 -999
2006-07-26 10:51 51°9.376 2°38.927 -999 -999 -999 -999 -999
2006-07-26 10:52 51°9.39 2°39.005 -999 -999 -999 -999 -999
2006-07-26 10:53 51°9.405 2°39.079 -999 -999 -999 -999 -999
2006-07-26 10:54 51°9.42 2°39.154 -999 -999 -999 -999 -999
2006-07-26 10:55 51°9.434 2°39.229 -999 -999 -999 -999 -999
2006-07-26 10:56 51°9.448 2°39.303 -999 -999 -999 -999 -999
2006-07-26 10:57 51°9.462 2°39.377 -999 -999 -999 -999 -999
2006-07-26 10:58 51°9.477 2°39.453 -999 -999 -999 -999 -999
2006-07-26 10:59 51°9.491 2°39.528 -999 -999 -999 -999 -999
2006-07-26 11:00 51°9.505 2°39.606 -999 -999 -999 -999 -999
2006-07-26 11:01 51°9.518 2°39.683 -999 -999 -999 -999 -999
2006-07-26 11:02 51°9.531 2°39.76 -999 -999 -999 -999 -999
2006-07-26 11:03 51°9.538 2°39.851 -999 -999 -999 -999 -999
2006-07-26 11:04 51°9.534 2°39.954 -999 -999 -999 -999 -999
2006-07-26 11:05 51°9.526 2°40.063 -999 -999 -999 -999 -999
2006-07-26 11:06 51°9.499 2°40.168 -999 -999 -999 -999 -999
2006-07-26 11:07 51°9.472 2°40.264 -999 -999 -999 -999 -999
2006-07-26 11:08 51°9.463 2°40.334 -999 -999 -999 -999 -999
2006-07-26 11:09 51°9.462 2°40.391 -999 -999 -999 -999 -999
2006-07-26 11:10 51°9.495 2°40.465 -999 -999 -999 -999 -999
2006-07-26 11:11 51°9.576 2°40.504 -999 -999 -999 -999 -999
2006-07-26 11:12 51°9.733 2°40.519 -999 -999 -999 -999 -999
2006-07-26 11:13 51°9.911 2°40.474 -999 -999 -999 -999 -999
2006-07-26 11:14 51°10.068 2°40.314 -999 -999 -999 -999 -999
2006-07-26 11:15 51°10.17 2°40.084 -999 -999 -999 -999 -999
2006-07-26 11:16 51°10.2 2°39.813 -999 -999 -999 -999 -999
2006-07-26 11:17 51°10.204 2°39.54 -999 -999 -999 -999 -999
2006-07-26 11:18 51°10.214 2°39.266 -999 -999 -999 -999 -999
2006-07-26 11:19 51°10.213 2°38.989 -999 -999 -999 -999 -999
2006-07-26 11:20 51°10.22 2°38.715 -999 -999 -999 -999 -999
2006-07-26 11:21 51°10.24 2°38.433 -999 -999 -999 -999 -999
2006-07-26 11:22 51°10.263 2°38.242 -999 -999 -999 -999 -999
2006-07-26 11:23 51°10.294 2°38.157 -999 -999 -999 -999 -999
2006-07-26 11:24 51°10.324 2°38.092 -999 -999 -999 -999 -999
2006-07-26 11:25 51°10.332 2°37.878 -999 -999 -999 -999 -999
2006-07-26 11:26 51°10.357 2°37.569 -999 -999 -999 -999 -999
2006-07-26 11:27 51°10.393 2°37.251 -999 -999 -999 -999 -999
2006-07-26 11:28 51°10.425 2°36.942 -999 -999 -999 -999 -999
2006-07-26 11:29 51°10.495 2°36.648 -999 -999 -999 -999 -999
2006-07-26 11:30 51°10.622 2°36.404 -999 -999 -999 -999 -999
2006-07-26 11:31 51°10.82 2°36.394 -999 -999 -999 -999 -999
2006-07-26 11:32 51°11.007 2°36.556 -999 -999 -999 -999 -999
2006-07-26 11:33 51°11.187 2°36.744 -999 -999 -999 -999 -999
2006-07-26 11:34 51°11.37 2°36.93 -999 -999 -999 -999 -999
2006-07-26 11:35 51°11.549 2°37.111 -999 -999 -999 -999 -999
2006-07-26 11:36 51°11.733 2°37.307 -999 -999 -999 -999 -999
2006-07-26 11:37 51°11.917 2°37.495 -999 -999 -999 -999 -999
2006-07-26 11:38 51°12.104 2°37.671 -999 -999 -999 -999 -999
2006-07-26 11:39 51°12.285 2°37.861 -999 -999 -999 -999 -999
2006-07-26 11:40 51°12.478 2°38.008 -999 -999 -999 -999 -999
2006-07-26 11:41 51°12.668 2°38.175 -999 -999 -999 -999 -999
2006-07-26 11:42 51°12.859 2°38.342 -999 -999 -999 -999 -999
2006-07-26 11:43 51°13.047 2°38.509 -999 -999 -999 -999 -999
2006-07-26 11:44 51°13.246 2°38.668 -999 -999 -999 -999 -999
2006-07-26 11:45 51°13.439 2°38.826 -999 -999 -999 -999 -999
2006-07-26 11:46 51°13.653 2°38.86 -999 -999 -999 -999 -999
2006-07-26 11:47 51°13.855 2°38.835 -999 -999 -999 -999 -999
2006-07-26 11:48 51°14.063 2°38.827 -999 -999 -999 -999 -999
2006-07-26 11:49 51°14.262 2°38.802 -999 -999 -999 -999 -999
2006-07-26 11:50 51°14.475 2°38.795 -999 -999 -999 -999 -999
2006-07-26 11:51 51°14.684 2°38.786 -999 -999 -999 -999 -999
2006-07-26 11:52 51°14.893 2°38.764 -999 -999 -999 -999 -999
2006-07-26 11:53 51°15.103 2°38.755 -999 -999 -999 -999 -999
2006-07-26 11:54 51°15.313 2°38.735 -999 -999 -999 -999 -999
2006-07-26 11:55 51°15.517 2°38.669 -999 -999 -999 -999 -999
2006-07-26 11:56 51°15.725 2°38.617 -999 -999 -999 -999 -999
2006-07-26 11:57 51°15.93 2°38.56 -999 -999 -999 -999 -999
2006-07-26 11:58 51°16.129 2°38.485 -999 -999 -999 -999 -999
2006-07-26 11:59 51°16.327 2°38.414 -999 -999 -999 -999 -999
2006-07-26 12:00 51°16.523 2°38.344 -999 -999 -999 -999 -999
2006-07-26 12:01 51°16.723 2°38.283 -999 -999 -999 -999 -999
2006-07-26 12:02 51°16.928 2°38.206 -999 -999 -999 -999 -999
2006-07-26 12:03 51°17.133 2°38.12 -999 -999 -999 -999 -999
2006-07-26 12:04 51°17.345 2°38.028 -999 -999 -999 -999 -999
2006-07-26 12:05 51°17.548 2°37.942 -999 -999 -999 -999 -999
2006-07-26 12:06 51°17.758 2°37.847 -999 -999 -999 -999 -999
2006-07-26 12:07 51°17.968 2°37.76 -999 -999 -999 -999 -999
2006-07-26 12:08 51°18.179 2°37.674 -999 -999 -999 -999 -999
2006-07-26 12:09 51°18.388 2°37.581 -999 -999 -999 -999 -999
2006-07-26 12:10 51°18.597 2°37.503 -999 -999 -999 -999 -999
2006-07-26 12:11 51°18.802 2°37.427 -999 -999 -999 -999 -999
2006-07-26 12:12 51°19.004 2°37.357 -999 -999 -999 -999 -999
2006-07-26 12:13 51°19.212 2°37.286 -999 -999 -999 -999 -999
2006-07-26 12:14 51°19.417 2°37.216 -999 -999 -999 -999 -999
2006-07-26 12:15 51°19.627 2°37.165 -999 -999 -999 -999 -999
2006-07-26 12:16 51°19.816 2°37.042 -999 -999 -999 -999 -999
2006-07-26 12:17 51°19.961 2°36.946 -999 -999 -999 -999 -999
2006-07-26 12:18 51°20.084 2°36.831 -999 -999 -999 -999 -999
2006-07-26 12:19 51°20.11 2°36.607 -999 -999 -999 -999 -999
2006-07-26 12:20 51°20.034 2°36.349 -999 -999 -999 -999 -999
2006-07-26 12:21 51°20.015 2°36.058 -999 -999 -999 -999 -999
2006-07-26 12:22 51°20.008 2°35.756 -999 -999 -999 -999 -999
2006-07-26 12:23 51°20.058 2°35.475 -999 -999 -999 -999 -999
2006-07-26 12:24 51°20.13 2°35.193 -999 -999 -999 -999 -999
2006-07-26 12:25 51°20.201 2°34.912 -999 -999 -999 -999 -999
2006-07-26 12:26 51°20.277 2°34.628 -999 -999 -999 -999 -999
2006-07-26 12:27 51°20.35 2°34.34 -999 -999 -999 -999 -999
2006-07-26 12:28 51°20.435 2°34.056 -999 -999 -999 -999 -999
2006-07-26 12:29 51°20.526 2°33.772 -999 -999 -999 -999 -999
2006-07-26 12:30 51°20.612 2°33.485 -999 -999 -999 -999 -999
2006-07-26 12:31 51°20.68 2°33.193 -999 -999 -999 -999 -999
2006-07-26 12:32 51°20.737 2°32.902 -999 -999 -999 -999 -999
2006-07-26 12:33 51°20.8 2°32.616 -999 -999 -999 -999 -999
2006-07-26 12:34 51°20.86 2°32.342 -999 -999 -999 -999 -999
2006-07-26 12:35 51°20.903 2°32.147 -999 -999 -999 -999 -999
2006-07-26 12:36 51°20.948 2°31.941 -999 -999 -999 -999 -999
2006-07-26 12:37 51°20.989 2°31.775 -999 -999 -999 -999 -999
2006-07-26 12:38 51°21.029 2°31.635 -999 -999 -999 -999 -999
2006-07-26 12:39 51°21.074 2°31.431 -999 -999 -999 -999 -999
2006-07-26 12:40 51°21.118 2°31.231 -999 -999 -999 -999 -999
2006-07-26 12:41 51°21.152 2°31.194 -999 -999 -999 -999 -999
2006-07-26 12:42 51°21.171 2°31.237 -999 -999 -999 -999 -999
2006-07-26 12:43 51°21.188 2°31.28 -999 -999 -999 -999 -999
2006-07-26 12:44 51°21.205 2°31.327 -999 -999 -999 -999 -999
2006-07-26 12:45 51°21.222 2°31.369 -999 -999 -999 -999 -999
2006-07-26 12:46 51°21.238 2°31.408 -999 -999 -999 -999 -999
2006-07-26 12:47 51°21.255 2°31.445 -999 -999 -999 -999 -999
2006-07-26 12:48 51°21.271 2°31.478 -999 -999 -999 -999 -999
2006-07-26 12:49 51°21.285 2°31.51 -999 -999 -999 -999 -999
2006-07-26 12:50 51°21.3 2°31.542 -999 -999 -999 -999 -999
2006-07-26 12:51 51°21.315 2°31.574 -999 -999 -999 -999 -999
2006-07-26 12:52 51°21.328 2°31.606 -999 -999 -999 -999 -999
2006-07-26 12:53 51°21.344 2°31.636 -999 -999 -999 -999 -999
2006-07-26 12:54 51°21.395 2°31.706 -999 -999 -999 -999 -999
2006-07-26 12:55 51°21.426 2°31.948 -999 -999 -999 -999 -999
2006-07-26 12:56 51°21.369 2°32.265 -999 -999 -999 -999 -999
2006-07-26 12:57 51°21.29 2°32.592 -999 -999 -999 -999 -999
2006-07-26 12:58 51°21.216 2°32.925 -999 -999 -999 -999 -999
2006-07-26 12:59 51°21.144 2°33.258 -999 -999 -999 -999 -999
2006-07-26 13:00 51°21.069 2°33.601 -999 -999 -999 -999 -999
2006-07-26 13:01 51°20.987 2°33.93 -999 -999 -999 -999 -999
2006-07-26 13:02 51°20.886 2°34.234 -999 -999 -999 -999 -999
2006-07-26 13:03 51°20.778 2°34.519 -999 -999 -999 -999 -999
2006-07-26 13:04 51°20.669 2°34.818 -999 -999 -999 -999 -999
2006-07-26 13:05 51°20.576 2°35.129 -999 -999 -999 -999 -999
2006-07-26 13:06 51°20.492 2°35.454 -999 -999 -999 -999 -999
2006-07-26 13:07 51°20.419 2°35.795 -999 -999 -999 -999 -999
2006-07-26 13:08 51°20.349 2°36.142 -999 -999 -999 -999 -999
2006-07-26 13:09 51°20.276 2°36.484 -999 -999 -999 -999 -999
2006-07-26 13:10 51°20.202 2°36.822 -999 -999 -999 -999 -999
2006-07-26 13:11 51°20.091 2°37.125 -999 -999 -999 -999 -999
2006-07-26 13:12 51°19.961 2°37.401 -999 -999 -999 -999 -999
2006-07-26 13:13 51°19.836 2°37.689 -999 -999 -999 -999 -999
2006-07-26 13:14 51°19.713 2°37.976 -999 -999 -999 -999 -999
2006-07-26 13:15 51°19.586 2°38.259 -999 -999 -999 -999 -999
2006-07-26 13:16 51°19.465 2°38.548 -999 -999 -999 -999 -999
2006-07-26 13:17 51°19.34 2°38.828 -999 -999 -999 -999 -999
2006-07-26 13:18 51°19.225 2°39.116 -999 -999 -999 -999 -999
2006-07-26 13:19 51°19.097 2°39.373 -999 -999 -999 -999 -999
2006-07-26 13:20 51°18.966 2°39.627 -999 -999 -999 -999 -999
2006-07-26 13:21 51°18.837 2°39.886 -999 -999 -999 -999 -999
2006-07-26 13:22 51°18.708 2°40.149 -999 -999 -999 -999 -999
2006-07-26 13:23 51°18.578 2°40.412 -999 -999 -999 -999 -999
2006-07-26 13:24 51°18.443 2°40.682 -999 -999 -999 -999 -999
2006-07-26 13:25 51°18.307 2°40.956 -999 -999 -999 -999 -999
2006-07-26 13:26 51°18.171 2°41.232 -999 -999 -999 -999 -999
2006-07-26 13:27 51°18.037 2°41.506 -999 -999 -999 -999 -999
2006-07-26 13:28 51°17.892 2°41.761 -999 -999 -999 -999 -999
2006-07-26 13:29 51°17.754 2°42.012 -999 -999 -999 -999 -999
2006-07-26 13:30 51°17.619 2°42.262 -999 -999 -999 -999 -999
2006-07-26 13:31 51°17.484 2°42.514 -999 -999 -999 -999 -999
2006-07-26 13:32 51°17.35 2°42.773 -999 -999 -999 -999 -999
2006-07-26 13:33 51°17.203 2°43.021 -999 -999 -999 -999 -999
2006-07-26 13:34 51°17.061 2°43.278 -999 -999 -999 -999 -999
2006-07-26 13:35 51°16.925 2°43.544 -999 -999 -999 -999 -999
2006-07-26 13:36 51°16.779 2°43.782 -999 -999 -999 -999 -999
2006-07-26 13:37 51°16.63 2°44.028 -999 -999 -999 -999 -999
2006-07-26 13:38 51°16.482 2°44.265 -999 -999 -999 -999 -999
2006-07-26 13:39 51°16.327 2°44.481 -999 -999 -999 -999 -999
2006-07-26 13:40 51°16.173 2°44.698 -999 -999 -999 -999 -999
2006-07-26 13:41 51°16.074 2°44.995 -999 -999 -999 -999 -999
2006-07-26 13:42 51°16.023 2°45.336 -999 -999 -999 -999 -999
2006-07-26 13:43 51°15.96 2°45.67 -999 -999 -999 -999 -999
2006-07-26 13:44 51°15.896 2°46.006 -999 -999 -999 -999 -999
2006-07-26 13:45 51°15.835 2°46.351 -999 -999 -999 -999 -999
2006-07-26 13:46 51°15.775 2°46.7 -999 -999 -999 -999 -999
2006-07-26 13:47 51°15.711 2°47.047 -999 -999 -999 -999 -999
2006-07-26 13:48 51°15.643 2°47.393 -999 -999 -999 -999 -999
2006-07-26 13:49 51°15.586 2°47.742 -999 -999 -999 -999 -999
2006-07-26 13:50 51°15.523 2°48.085 -999 -999 -999 -999 -999
2006-07-26 13:51 51°15.447 2°48.417 -999 -999 -999 -999 -999
2006-07-26 13:52 51°15.397 2°48.761 -999 -999 -999 -999 -999
2006-07-26 13:53 51°15.356 2°49.115 -999 -999 -999 -999 -999
2006-07-26 13:54 51°15.315 2°49.469 -999 -999 -999 -999 -999
2006-07-26 13:55 51°15.26 2°49.812 -999 -999 -999 -999 -999
2006-07-26 13:56 51°15.222 2°50.162 -999 -999 -999 -999 -999
2006-07-26 13:57 51°15.169 2°50.506 -999 -999 -999 -999 -999
2006-07-26 13:58 51°15.138 2°50.859 -999 -999 -999 -999 -999
2006-07-26 13:59 51°15.093 2°51.207 -999 -999 -999 -999 -999
2006-07-26 14:00 51°15.056 2°51.558 -999 -999 -999 -999 -999
2006-07-26 14:01 51°15.023 2°51.912 -999 -999 -999 -999 -999
2006-07-26 14:02 51°14.984 2°52.26 -999 -999 -999 -999 -999
2006-07-26 14:03 51°14.939 2°52.608 -999 -999 -999 -999 -999
2006-07-26 14:04 51°14.883 2°52.949 -999 -999 -999 -999 -999
2006-07-26 14:05 51°14.821 2°53.284 -999 -999 -999 -999 -999
2006-07-26 14:06 51°14.777 2°53.623 -999 -999 -999 -999 -999
2006-07-26 14:07 51°14.723 2°53.81 -999 -999 -999 -999 -999
2006-07-26 14:08 51°14.678 2°53.885 -999 -999 -999 -999 -999
2006-07-26 14:09 51°14.645 2°53.93 -999 -999 -999 -999 -999
2006-07-26 14:10 51°14.615 2°53.969 -999 -999 -999 -999 -999
2006-07-26 14:11 51°14.586 2°54.015 -999 -999 -999 -999 -999
2006-07-26 14:12 51°14.554 2°54.083 -999 -999 -999 -999 -999
2006-07-26 14:13 51°14.532 2°54.173 -999 -999 -999 -999 -999
2006-07-26 14:14 51°14.524 2°54.261 -999 -999 -999 -999 -999
2006-07-26 14:15 51°14.523 2°54.345 -999 -999 -999 -999 -999
2006-07-26 14:16 51°14.523 2°54.426 -999 -999 -999 -999 -999
2006-07-26 14:17 51°14.522 2°54.499 -999 -999 -999 -999 -999
2006-07-26 14:18 51°14.493 2°54.568 -999 -999 -999 -999 -999
2006-07-26 14:19 51°14.477 2°54.49 -999 -999 -999 -999 -999
2006-07-26 14:20 51°14.515 2°54.408 -999 -999 -999 -999 -999
2006-07-26 14:21 51°14.513 2°54.445 -999 -999 -999 -999 -999
2006-07-26 14:22 51°14.525 2°54.478 -999 -999 -999 -999 -999
2006-07-26 14:23 51°14.546 2°54.502 -999 -999 -999 -999 -999
2006-07-26 14:24 51°14.606 2°54.612 -999 -999 -999 -999 -999
2006-07-26 14:25 51°14.529 2°54.803 -999 -999 -999 -999 -999
2006-07-26 14:26 51°14.39 2°55.033 -999 -999 -999 -999 -999
2006-07-26 14:27 51°14.274 2°55.248 -999 -999 -999 -999 -999
2006-07-26 14:28 51°14.174 2°55.377 -999 -999 -999 -999 -999
2006-07-26 14:29 51°14.067 2°55.457 -999 -999 -999 -999 -999
2006-07-26 14:30 51°13.962 2°55.531 -999 -999 -999 -999 -999
2006-07-26 14:31 51°13.851 2°55.612 -999 -999 -999 -999 -999
2006-07-26 14:32 51°13.767 2°55.702 -999 -999 -999 -999 -999
2006-07-26 14:33 51°13.693 2°55.829 -999 -999 -999 -999 -999
2006-07-26 14:34 51°13.644 2°55.932 -999 -999 -999 -999 -999
2006-07-26 14:35 51°13.615 2°56.016 -999 -999 -999 -999 -999
2006-07-26 14:36 51°13.606 2°56.08 -999 -999 -999 -999 -999
2006-07-26 14:37 51°13.602 2°56.096 -999 -999 -999 -999 -999